Terminal Aerodrome Forecast
Issued by NWS

Home | Current Version | Previous Version | Text Only | Print | Product List | Glossary On
Versions: 1 2 3 4 5 6 7 8 9 10 11 12 13 14 15 16 17 18 19 20 21 22 23 24 25 26 27 28 29 30 31 32 33 34 35 36 37 38 39
000
FTUS43 KDTX 011200 AAB
TAFYIP
TAF AMD
KYIP 011238Z 0113/0212 00000KT 5SM BR OVC002
      TEMPO 0113/0114 1SM BR
     FM011400 VRB03KT P6SM BKN014 OVC022
     FM011700 11004KT P6SM BKN026 BKN040
     FM011900 12005KT P6SM SCT028 BKN040
     FM020100 12005KT P6SM SCT035
     FM020600 16004KT 1SM BR OVC005=

USA.gov is the U.S. government's official web portal to all federal, state and local government web resources and services.